Village of the Hills, Texas
Current Conditions -  °F | °C
As of 1:55 PM on Saturday 20 Dec 2014 (Local Time) from KRYW Reporting Station
Overcast Overcast  
Wind Chill: 51°   Ceiling: 1800
Heat Index: 51°   Visibility: 10mi
Dew Point: 44°   Wind: 5mph
Humidity: 77%   Direction: 30°NNE
Pressure: 30.17"   Gusts: NA
Location:  30.3192°N, 98.0276°W
Report Text: KRYW 201955Z AUTO 03004KT 10SM OVC018 11/07 A3017 RMK AO2 T01050067
Loading
Personal Weather Stations






























Interactive Weather Map New forecast layout! Learn more

10-Day Weather Forecast

Advertisements
Track Severe Weather on mobile